Terminal Aerodrome Forecast
Issued by NWS

Home | Current Version | Previous Version | Text Only | Print | Product List | Glossary On
Versions: 1 2 3 4 5 6 7 8 9 10 11 12 13 14 15 16 17 18
000
FTUS45 KTFX 202300
TAFGTF
TAF
KGTF 202336Z 2100/2124 VRB06KT P6SM VCTS SCT060CB OVC100
     FM210200 VRB05KT P6SM SCT070 BKN150
     FM211000 32005KT P6SM -RA SCT020 OVC050 PROB30 2115/2121 5SM
      -RA BR OVC025=

USA.gov is the U.S. government's official web portal to all federal, state and local government web resources and services.